LTCA

Elazığ Airport

Elazığ, Turkey
TAF LTCA 241640Z 2418/2503 VRB02KT CAVOK
Issued Valid From Valid To
Sep-24 @ 16:40 UTC
(3 hours ago)
Sep-24 @ 18:00 UTC
(2 hours ago)
Sep-25 @ 03:00 UTC
(in 7 hours)
Sep-24 @ 18:00 to Sep-25 @ 03:00
TAF LTCA 241640Z 2418/2503 VRB02KT CAVOK
Wind Visibility Clouds Conditions
Variable at 2 knots 10,000+ meters
  • No significant clouds
TAF LTCA 241640Z 2418/2503 VRB02KT CAVOK
Issued Sep-24 @ 16:40 UTC
(3 hours ago)
Valid From Sep-24 @ 18:00 UTC
(2 hours ago)
Valid To Sep-25 @ 03:00 UTC
(in 7 hours)
Sep-24 @ 18:00 - Sep-25 @ 03:00
Wind Visibility
Variable at 2 knots 10,000+ meters
Clouds
  • No significant clouds
Conditions